Terminal Aerodrome Forecast
Issued by NWS

Home | Current Version | Previous Version | Text Only | Print | Product List | Glossary On
Versions: 1 2 3 4 5 6 7 8 9 10 11 12 13 14 15 16 17 18 19 20 21 22 23 24
000
FTUS46 KMTR 240814 AAB
TAFSTS
TAF AMD
KSTS 240814Z 2408/2506 VRB02KT 2SM BR SCT002
      TEMPO 2408/2412 1/2SM FG OVC002
     FM241200 VRB02KT 1/2SM FG BKN005
     FM241600 16005KT 5SM BR BKN030
     FM241800 16006KT 6SM -RA BR OVC020
     FM242200 21006KT 5SM RA BR OVC015
     FM250100 25010KT 3SM -SHRA OVC010=

USA.gov is the U.S. government's official web portal to all federal, state and local government web resources and services.